Time;durP1;ratioP1;P1;durP2;ratioP2;P2;SDS_P1;SDS_P2;PMS_P1;PMS_P2;Temp;Humidity;BMP_temperature;BMP_pressure;BME280_temperature;BME280_humidity;BME280_pressure;Samples;Min_cycle;Max_cycle;Signal;HPM_P1;HPM_P2
2022/08/12 00:45:13;;;;;;;;;;;;;;;26.01;43.65;101783.91;7281526;19;152311;-64
2022/08/12 00:47:41;;;;;;;;;;;;;;;26.03;43.30;101775.06;7282221;19;154658;-64
2022/08/12 00:50:09;;;;;;;;;;;;;;;26.05;43.59;101772.75;7279259;19;154351;-64
2022/08/12 00:52:37;;;;;;;;;;;;;;;26.04;43.39;101773.91;7290624;19;152748;-64
2022/08/12 00:55:13;;;;;;;;;;;;;;;26.03;43.64;101773.06;7278766;19;154073;-63
2022/08/12 00:57:43;;;;;;;;;;;;;;;26.05;43.44;101764.25;7282103;19;153153;-64
2022/08/12 01:00:11;;;;;;;;;;;;;;;26.03;43.45;101775.91;7266652;19;153783;-64
2022/08/12 01:02:44;;;;;;;;;;;;;;;26.05;43.23;101779.25;7276002;19;152969;-63
2022/08/12 01:13:34;;;;;;;;;;;;;;;26.01;43.10;101766.06;7282831;19;152330;-63
2022/08/12 01:16:02;;;;;;;;;;;;;;;26.01;43.25;101757.56;7288289;19;152161;-63
2022/08/12 01:18:31;;;;;;;;;;;;;;;26.02;43.32;101754.41;7283429;19;152048;-64
2022/08/12 01:21:16;;;;;;;;;;;;;;;26.00;43.15;101755.91;7279663;19;152914;-63
2022/08/12 01:23:46;;;;;;;;;;;;;;;26.00;42.87;101761.56;7277690;19;153675;-64
2022/08/12 01:26:17;;;;;;;;;;;;;;;25.99;42.98;101762.72;7282321;19;152639;-64
2022/08/12 01:28:46;;;;;;;;;;;;;;;25.99;42.85;101762.72;7278238;19;154159;-63
2022/08/12 01:31:16;;;;;;;;;;;;;;;25.98;42.85;101761.06;7282618;19;153900;-64
2022/08/12 01:33:54;;;;;;;;;;;;;;;25.98;42.90;101749.75;7280385;19;152133;-64
2022/08/12 01:36:21;;;;;;;;;;;;;;;25.95;42.99;101744.69;7282667;19;152602;-64
2022/08/12 01:38:49;;;;;;;;;;;;;;;25.95;42.72;101747.53;7286091;19;153031;-64
2022/08/12 01:41:18;;;;;;;;;;;;;;;25.95;42.79;101744.69;7280243;19;153481;-64
2022/08/12 01:43:45;;;;;;;;;;;;;;;25.94;42.83;101743.88;7273824;19;153190;-63
2022/08/12 01:46:39;;;;;;;;;;;;;;;25.96;43.06;101749.22;7265291;19;152549;-64
2022/08/12 01:49:18;;;;;;;;;;;;;;;25.97;42.59;101745.22;7278108;19;152555;-63
2022/08/12 01:51:54;;;;;;;;;;;;;;;25.96;42.63;101738.72;7280898;19;153434;-64
2022/08/12 01:54:43;;;;;;;;;;;;;;;25.90;42.71;101734.34;7280346;19;152490;-63
2022/08/12 01:57:23;;;;;;;;;;;;;;;25.96;42.63;101730.22;7276519;19;155740;-63
2022/08/12 02:00:12;;;;;;;;;;;;;;;25.96;42.31;101730.22;7286017;19;156442;-64
2022/08/12 02:02:45;;;;;;;;;;;;;;;25.93;42.33;101730.88;7280464;19;152848;-63
2022/08/12 02:11:22;;;;;;;;;;;;;;;25.91;42.89;101723.88;7281097;19;154638;-64
2022/08/12 02:13:56;;;;;;;;;;;;;;;25.92;42.59;101726.38;7285343;19;154733;-65
2022/08/12 02:16:39;;;;;;;;;;;;;;;25.90;42.98;101725.84;7285084;19;151849;-63
2022/08/12 02:19:33;;;;;;;;;;;;;;;25.90;42.48;101719.34;7283791;19;152790;-63
2022/08/12 02:22:18;;;;;;;;;;;;;;;25.89;42.47;101715.72;7287558;19;153546;-63
2022/08/12 02:24:45;;;;;;;;;;;;;;;25.95;42.13;101714.38;7293412;19;152231;-63
2022/08/12 02:27:14;;;;;;;;;;;;;;;25.88;42.65;101716.88;7284014;19;153268;-63
2022/08/12 02:29:41;;;;;;;;;;;;;;;25.89;42.74;101710.06;7284724;19;151892;-63
2022/08/12 02:32:08;;;;;;;;;;;;;;;25.90;42.72;101708.03;7286618;19;152974;-64
2022/08/12 02:34:36;;;;;;;;;;;;;;;25.90;42.96;101711.69;7282997;19;154081;-63
2022/08/12 02:37:03;;;;;;;;;;;;;;;25.89;42.61;101712.03;7284980;19;153632;-64
2022/08/12 02:39:34;;;;;;;;;;;;;;;25.91;42.45;101706.88;7286250;19;153662;-63
2022/08/12 02:42:03;;;;;;;;;;;;;;;25.88;42.72;101702.72;7283803;19;155468;-63
2022/08/12 02:44:36;;;;;;;;;;;;;;;25.86;42.51;101710.69;7281868;19;152137;-63
2022/08/12 02:47:05;;;;;;;;;;;;;;;25.87;42.80;101709.53;7288515;19;153796;-64
2022/08/12 02:49:55;;;;;;;;;;;;;;;25.86;42.43;101707.84;7275796;19;153962;-64
2022/08/12 02:52:23;;;;;;;;;;;;;;;25.86;42.72;101702.19;7283396;19;153753;-64
2022/08/12 02:54:52;;;;;;;;;;;;;;;25.84;42.95;101701.69;7281986;19;152949;-64
2022/08/12 02:57:40;;;;;;;;;;;;;;;25.83;42.67;101700.03;7282964;19;153955;-64
2022/08/12 03:00:07;;;;;;;;;;;;;;;25.82;42.65;101694.69;7277847;19;156176;-63
2022/08/12 03:02:39;;;;;;;;;;;;;;;25.83;42.70;101700.03;7282538;19;153323;-63
2022/08/12 03:05:14;;;;;;;;;;;;;;;25.82;42.57;101689.84;7278352;19;153514;-64
2022/08/12 03:07:46;;;;;;;;;;;;;;;25.80;42.82;101689.38;7285269;19;152982;-64
2022/08/12 03:10:28;;;;;;;;;;;;;;;25.83;42.53;101697.19;7291301;19;153041;-64
2022/08/12 03:13:05;;;;;;;;;;;;;;;25.83;42.48;101687.88;7264095;19;153360;-64
2022/08/12 03:15:34;;;;;;;;;;;;;;;25.80;42.40;101688.53;7272978;19;153592;-63
2022/08/12 03:18:18;;;;;;;;;;;;;;;25.80;42.77;101695.03;7283879;19;152905;-63
2022/08/12 03:20:54;;;;;;;;;;;;;;;25.82;42.61;101689.84;7279280;19;153115;-64
2022/08/12 03:23:22;;;;;;;;;;;;;;;25.77;42.62;101692.81;7280093;19;152810;-64
2022/08/12 03:25:57;;;;;;;;;;;;;;;25.79;42.66;101690.53;7282192;19;152677;-63
2022/08/12 03:31:10;;;;;;;;;;;;;;;25.80;42.81;101685.69;7284169;19;153809;-63
2022/08/12 03:33:39;;;;;;;;;;;;;;;25.81;42.80;101693.00;7290274;19;153608;-64
2022/08/12 03:36:07;;;;;;;;;;;;;;;25.78;42.87;101686.00;7280759;19;154852;-64
2022/08/12 03:38:41;;;;;;;;;;;;;;;25.77;42.88;101681.50;7283256;19;152152;-63
2022/08/12 04:01:05;;;;;;;;;;;;;;;25.84;42.70;101690.38;7280819;19;152100;-64
2022/08/12 04:03:51;;;;;;;;;;;;;;;25.74;43.11;101687.00;7281390;19;153650;-63
2022/08/12 04:06:22;;;;;;;;;;;;;;;25.71;43.13;101685.66;7283105;19;153539;-64
2022/08/12 04:09:03;;;;;;;;;;;;;;;25.71;43.08;101682.81;7281549;19;151990;-64
2022/08/12 04:14:28;;;;;;;;;;;;;;;25.70;42.90;101675.50;7282182;19;154191;-63
2022/08/12 04:16:55;;;;;;;;;;;;;;;25.71;43.55;101679.16;7284508;19;152835;-63
2022/08/12 04:19:25;;;;;;;;;;;;;;;25.70;43.41;101683.13;7286299;19;152943;-63
2022/08/12 04:21:54;;;;;;;;;;;;;;;25.74;43.27;101682.16;7284909;19;152047;-64
2022/08/12 04:24:30;;;;;;;;;;;;;;;25.70;43.31;101680.31;7281940;19;153560;-63
2022/08/12 04:26:57;;;;;;;;;;;;;;;25.67;43.39;101674.13;7282056;19;153418;-63
2022/08/12 04:29:25;;;;;;;;;;;;;;;25.66;43.36;101678.16;7283777;19;152507;-63
2022/08/12 04:32:13;;;;;;;;;;;;;;;25.66;43.33;101677.31;7282362;19;155195;-63
2022/08/12 04:34:40;;;;;;;;;;;;;;;25.66;43.65;101672.47;7277078;19;154215;-63
2022/08/12 04:37:07;;;;;;;;;;;;;;;25.65;43.68;101673.63;7283380;19;152717;-63
2022/08/12 04:39:36;;;;;;;;;;;;;;;25.66;43.50;101669.66;7280925;19;153057;-64
2022/08/12 04:42:03;;;;;;;;;;;;;;;25.66;43.61;101674.47;7290114;19;154248;-64
2022/08/12 04:44:31;;;;;;;;;;;;;;;25.66;43.51;101671.66;7281184;19;155304;-63
2022/08/12 04:46:57;;;;;;;;;;;;;;;25.65;43.39;101673.63;7281901;19;155675;-64
2022/08/12 04:49:25;;;;;;;;;;;;;;;25.64;43.79;101663.47;7279680;19;153274;-63
2022/08/12 04:51:54;;;;;;;;;;;;;;;25.64;43.47;101663.47;7282811;19;152388;-64
2022/08/12 04:54:25;;;;;;;;;;;;;;;25.65;43.56;101664.31;7281563;19;154720;-64
2022/08/12 04:56:52;;;;;;;;;;;;;;;25.65;43.64;101665.16;7282187;19;152880;-63
2022/08/12 04:59:30;;;;;;;;;;;;;;;25.61;43.81;101661.31;7279377;19;153050;-63
2022/08/12 05:02:12;;;;;;;;;;;;;;;25.62;43.75;101667.81;7264130;19;153584;-63
2022/08/12 05:04:55;;;;;;;;;;;;;;;25.65;43.89;101669.97;7270255;19;153045;-64
2022/08/12 05:07:26;;;;;;;;;;;;;;;25.62;44.11;101673.47;7278914;19;152631;-63
2022/08/12 05:09:53;;;;;;;;;;;;;;;25.62;43.89;101674.28;7278321;19;152429;-63
2022/08/12 05:12:31;;;;;;;;;;;;;;;25.64;43.96;101671.13;7281093;19;152767;-64
2022/08/12 05:14:59;;;;;;;;;;;;;;;25.67;43.99;101668.47;7274550;19;154207;-63
2022/08/12 05:17:26;;;;;;;;;;;;;;;25.61;44.39;101666.97;7280075;19;152242;-63
2022/08/12 05:19:53;;;;;;;;;;;;;;;25.63;44.11;101670.28;7277783;19;154186;-63
2022/08/12 05:22:23;;;;;;;;;;;;;;;25.64;44.18;101674.78;7279687;19;154026;-64
2022/08/12 05:24:49;;;;;;;;;;;;;;;25.64;44.31;101677.63;7277605;19;152340;-63
2022/08/12 05:27:16;;;;;;;;;;;;;;;25.63;44.22;101680.75;7287335;19;152601;-63
2022/08/12 05:29:48;;;;;;;;;;;;;;;25.63;44.19;101678.78;7280278;19;152235;-63
2022/08/12 05:32:34;;;;;;;;;;;;;;;25.64;44.23;101679.63;7280466;19;153474;-63
2022/08/12 05:35:05;;;;;;;;;;;;;;;25.60;44.77;101682.25;7276059;19;153261;-63
2022/08/12 05:37:33;;;;;;;;;;;;;;;25.60;44.35;101676.59;7280660;19;151984;-64
2022/08/12 05:40:00;;;;;;;;;;;;;;;25.59;44.34;101682.59;7280780;19;153718;-63
2022/08/12 05:42:33;;;;;;;;;;;;;;;25.58;44.46;101683.72;7279163;19;153402;-63
2022/08/12 05:45:00;;;;;;;;;;;;;;;25.61;44.48;101697.25;7279112;19;152344;-63
2022/08/12 05:47:27;;;;;;;;;;;;;;;25.59;44.75;101688.25;7280300;19;153006;-64
2022/08/12 05:50:14;;;;;;;;;;;;;;;25.57;44.81;101691.41;7292073;19;155462;-63
2022/08/12 05:52:41;;;;;;;;;;;;;;;25.58;44.87;101701.56;7288018;19;155080;-64
2022/08/12 05:55:09;;;;;;;;;;;;;;;25.57;44.91;101697.06;7286002;19;153998;-64
2022/08/12 05:57:37;;;;;;;;;;;;;;;25.58;44.88;101695.06;7288100;19;152993;-63
2022/08/12 06:00:04;;;;;;;;;;;;;;;25.58;45.13;101698.72;7287220;19;153692;-63
2022/08/12 06:02:30;;;;;;;;;;;;;;;25.57;44.60;101694.25;7281851;19;153805;-63
2022/08/12 06:04:59;;;;;;;;;;;;;;;25.57;44.91;101690.56;7283660;19;153016;-63
2022/08/12 06:07:25;;;;;;;;;;;;;;;25.57;44.78;101699.91;7288298;19;153371;-63
2022/08/12 06:10:12;;;;;;;;;;;;;;;25.57;45.33;101696.25;7292514;19;156141;-63
2022/08/12 06:12:40;;;;;;;;;;;;;;;25.58;44.93;101698.72;7288190;19;153726;-64
2022/08/12 06:15:08;;;;;;;;;;;;;;;25.57;45.18;101702.75;7285629;19;152655;-63
2022/08/12 06:17:36;;;;;;;;;;;;;;;25.59;44.91;101688.25;7287688;19;153423;-63
2022/08/12 06:20:04;;;;;;;;;;;;;;;25.57;44.88;101693.41;7284112;19;153657;-65
2022/08/12 06:22:50;;;;;;;;;;;;;;;25.57;45.35;101699.06;7285587;19;155118;-64
2022/08/12 06:25:20;;;;;;;;;;;;;;;25.56;45.69;101703.06;7285121;19;152569;-63
2022/08/12 06:27:48;;;;;;;;;;;;;;;25.56;45.53;101700.22;7287535;19;155071;-63
2022/08/12 06:30:34;;;;;;;;;;;;;;;25.57;45.60;101694.25;7285358;19;154078;-63
2022/08/12 06:33:07;;;;;;;;;;;;;;;25.58;45.45;101692.22;7294863;19;151967;-63
2022/08/12 06:35:49;;;;;;;;;;;;;;;25.57;45.63;101684.91;7281355;19;152736;-64
2022/08/12 06:38:21;;;;;;;;;;;;;;;25.56;45.97;101684.09;7287124;19;152950;-63
2022/08/12 06:43:36;;;;;;;;;;;;;;;25.56;45.79;101689.75;7284108;19;153875;-63
2022/08/12 06:46:23;;;;;;;;;;;;;;;25.57;45.90;101693.41;7284284;19;151892;-63
2022/08/12 06:48:55;;;;;;;;;;;;;;;25.59;45.60;101685.41;7283583;19;153521;-64
2022/08/12 06:51:22;;;;;;;;;;;;;;;25.58;45.83;101684.56;7285490;19;154153;-63
2022/08/12 06:53:49;;;;;;;;;;;;;;;25.59;45.65;101680.59;7285858;19;152177;-63
2022/08/12 06:56:15;;;;;;;;;;;;;;;25.60;46.06;101681.44;7292867;19;154165;-63
2022/08/12 06:58:43;;;;;;;;;;;;;;;25.56;46.09;101681.25;7284054;19;152853;-64
2022/08/12 07:01:10;;;;;;;;;;;;;;;25.57;46.00;101685.75;7286027;19;151724;-64
2022/08/12 07:03:37;;;;;;;;;;;;;;;25.58;46.22;101678.06;7278840;19;153672;-63
2022/08/12 07:06:05;;;;;;;;;;;;;;;25.55;45.96;101673.06;7283202;19;153176;-64
2022/08/12 07:08:32;;;;;;;;;;;;;;;25.57;46.26;101674.44;7285797;19;152930;-64
2022/08/12 07:11:01;;;;;;;;;;;;;;;25.60;46.28;101675.78;7284269;19;154171;-64
2022/08/12 07:13:36;;;;;;;;;;;;;;;25.57;46.72;101682.09;7286184;19;152539;-64
2022/08/12 07:16:23;;;;;;;;;;;;;;;25.58;46.57;101675.25;7285417;19;155497;-64
2022/08/12 07:18:52;;;;;;;;;;;;;;;25.59;46.94;101677.75;7290041;19;153641;-64
2022/08/12 07:21:19;;;;;;;;;;;;;;;25.58;46.86;101673.25;7284920;19;154453;-63
2022/08/12 07:23:45;;;;;;;;;;;;;;;25.57;46.88;101670.78;7283998;19;153519;-63
2022/08/12 07:26:16;;;;;;;;;;;;;;;25.62;46.66;101670.63;7284282;19;152237;-63
2022/08/12 07:28:42;;;;;;;;;;;;;;;25.60;46.98;101670.09;7284877;19;152788;-64
2022/08/12 07:31:10;;;;;;;;;;;;;;;25.62;46.92;101673.47;7284699;19;155160;-64
2022/08/12 07:33:38;;;;;;;;;;;;;;;25.60;46.94;101670.09;7284643;19;152460;-64
2022/08/12 07:36:06;;;;;;;;;;;;;;;25.61;47.28;101672.63;7282748;19;154128;-63
2022/08/12 07:38:34;;;;;;;;;;;;;;;25.59;47.40;101674.94;7284428;19;153174;-64
2022/08/12 07:41:02;;;;;;;;;;;;;;;25.59;47.47;101669.28;7292065;19;152249;-64
2022/08/12 07:43:29;;;;;;;;;;;;;;;25.60;47.51;101673.78;7283734;19;154027;-64
2022/08/12 07:45:57;;;;;;;;;;;;;;;25.62;47.44;101673.47;7283869;19;153509;-63
2022/08/12 07:48:24;;;;;;;;;;;;;;;25.60;47.40;101678.59;7284692;19;155429;-64
2022/08/12 07:50:51;;;;;;;;;;;;;;;25.61;47.48;101674.63;7280005;19;153984;-63
2022/08/12 07:53:19;;;;;;;;;;;;;;;25.61;47.40;101672.63;7285331;19;152823;-63
2022/08/12 07:55:46;;;;;;;;;;;;;;;25.61;47.42;101674.63;7284994;19;153141;-63
2022/08/12 07:58:13;;;;;;;;;;;;;;;25.63;47.67;101670.28;7284975;19;153233;-63
2022/08/12 08:00:40;;;;;;;;;;;;;;;25.63;47.52;101672.28;7284386;19;152831;-63
2022/08/12 08:03:07;;;;;;;;;;;;;;;25.63;47.69;101670.28;7292810;19;152464;-64
2022/08/12 08:05:45;;;;;;;;;;;;;;;25.63;47.55;101673.13;7281868;19;152302;-64
2022/08/12 08:08:16;;;;;;;;;;;;;;;25.62;47.62;101660.13;7285390;19;153688;-64
2022/08/12 08:10:43;;;;;;;;;;;;;;;25.63;47.69;101672.28;7280723;19;153880;-63
2022/08/12 08:13:11;;;;;;;;;;;;;;;25.64;47.92;101668.28;7285515;19;151928;-64
2022/08/12 08:15:38;;;;;;;;;;;;;;;25.64;48.19;101662.63;7283087;19;152759;-63
2022/08/12 08:18:26;;;;;;;;;;;;;;;25.64;47.84;101669.13;7281878;19;153977;-64
2022/08/12 08:20:54;;;;;;;;;;;;;;;25.65;47.83;101670.81;7281119;19;152060;-63
2022/08/12 08:23:21;;;;;;;;;;;;;;;25.68;47.68;101669.31;7291156;19;153933;-64
2022/08/12 08:26:00;;;;;;;;;;;;;;;25.66;48.01;101666.81;7282687;19;152026;-64
2022/08/12 08:28:27;;;;;;;;;;;;;;;25.70;48.01;101669.00;7284600;19;152690;-64
2022/08/12 08:30:54;;;;;;;;;;;;;;;25.68;47.99;101666.47;7282896;19;153029;-64
2022/08/12 08:33:22;;;;;;;;;;;;;;;25.70;48.13;101666.16;7284272;19;152211;-64
2022/08/12 08:36:09;;;;;;;;;;;;;;;25.70;47.80;101654.84;7281079;19;157281;-64
2022/08/12 08:38:48;;;;;;;;;;;;;;;25.67;48.69;101659.97;7282342;19;153490;-63
2022/08/12 08:44:28;;;;;;;;;;;;;;;25.70;48.21;101652.84;7285163;19;155984;-63
2022/08/12 08:46:55;;;;;;;;;;;;;;;25.70;48.12;101652.84;7290329;19;153177;-64
2022/08/12 08:49:22;;;;;;;;;;;;;;;25.72;48.06;101653.34;7281237;19;154210;-63
2022/08/12 08:51:48;;;;;;;;;;;;;;;25.72;48.28;101649.66;7281471;19;153131;-63
2022/08/12 08:54:15;;;;;;;;;;;;;;;25.70;48.65;101652.84;7282450;19;153033;-63
2022/08/12 08:56:48;;;;;;;;;;;;;;;25.69;48.35;101654.00;7285016;19;152618;-64
2022/08/12 08:59:21;;;;;;;;;;;;;;;25.74;48.42;101658.69;7283233;19;154075;-64
2022/08/12 09:01:48;;;;;;;;;;;;;;;25.74;48.50;101650.19;7284129;19;152043;-64
2022/08/12 09:04:15;;;;;;;;;;;;;;;25.77;48.44;101658.84;7277011;19;153685;-64
2022/08/12 09:07:03;;;;;;;;;;;;;;;25.75;48.15;101655.53;7278663;19;157480;-64
2022/08/12 09:09:43;;;;;;;;;;;;;;;25.76;48.16;101651.50;7290081;19;152530;-63
2022/08/12 09:15:21;;;;;;;;;;;;;;;25.80;48.23;101652.56;7283576;19;152345;-63
2022/08/12 09:18:01;;;;;;;;;;;;;;;25.80;48.11;101655.38;7284303;19;153888;-64
2022/08/12 09:20:32;;;;;;;;;;;;;;;25.80;47.86;101646.91;7276594;19;153709;-64
2022/08/12 09:23:04;;;;;;;;;;;;;;;25.83;48.11;101649.06;7287283;19;152341;-63
2022/08/12 09:25:51;;;;;;;;;;;;;;;25.85;47.87;101643.09;7287990;19;155978;-63
2022/08/12 09:28:19;;;;;;;;;;;;;;;25.85;47.85;101643.09;7287033;19;153948;-64
2022/08/12 09:30:57;;;;;;;;;;;;;;;25.84;47.86;101642.25;7288568;19;152501;-64
2022/08/12 09:33:32;;;;;;;;;;;;;;;25.84;47.84;101642.25;7295007;19;152842;-63
2022/08/12 09:36:20;;;;;;;;;;;;;;;25.86;47.79;101642.72;7288768;19;151727;-63
2022/08/12 09:39:07;;;;;;;;;;;;;;;25.87;48.24;101638.75;7285947;19;155560;-63
2022/08/12 09:47:50;;;;;;;;;;;;;;;25.92;48.41;101638.59;7287318;19;152137;-64
2022/08/12 09:50:25;;;;;;;;;;;;;;;25.93;47.97;101630.94;7284479;19;153875;-64
2022/08/12 09:53:06;;;;;;;;;;;;;;;25.95;48.66;101632.25;7288123;19;152424;-63
2022/08/12 09:55:42;;;;;;;;;;;;;;;25.98;48.33;101625.13;7287796;19;153429;-63
2022/08/12 09:58:29;;;;;;;;;;;;;;;26.01;47.91;101633.78;7293334;19;156992;-63
2022/08/12 10:01:17;;;;;;;;;;;;;;;26.03;48.26;101624.94;7287705;19;156468;-64
2022/08/12 10:03:49;;;;;;;;;;;;;;;26.05;48.46;101622.63;7281565;19;154077;-63
2022/08/12 10:06:41;;;;;;;;;;;;;;;26.07;48.32;101618.28;7286034;19;152393;-63
2022/08/12 10:09:22;;;;;;;;;;;;;;;26.08;48.37;101622.78;7285803;19;153384;-63
2022/08/12 10:15:09;;;;;;;;;;;;;;;26.12;48.31;101620.97;7287958;19;152009;-63
2022/08/12 10:17:56;;;;;;;;;;;;;;;26.17;48.19;101616.31;7288208;19;156129;-63
2022/08/12 10:20:33;;;;;;;;;;;;;;;26.18;48.18;101615.97;7282578;19;154227;-65
2022/08/12 10:23:00;;;;;;;;;;;;;;;26.19;47.91;101606.31;7294195;19;152121;-63
2022/08/12 10:31:28;;;;;;;;;;;;;;;26.27;47.81;101602.69;7287275;19;153725;-63
2022/08/12 10:34:15;;;;;;;;;;;;;;;26.29;47.91;101603.22;7278377;19;157289;-63
2022/08/12 10:36:57;;;;;;;;;;;;;;;26.31;48.18;101594.34;7287829;19;152329;-64
2022/08/12 10:39:38;;;;;;;;;;;;;;;26.35;47.81;101592.53;7285675;19;153873;-64
2022/08/12 10:45:12;;;;;;;;;;;;;;;26.37;47.54;101587.38;7294000;19;152080;-64
2022/08/12 10:47:42;;;;;;;;;;;;;;;26.38;47.51;101577.72;7282575;19;155163;-63
2022/08/12 10:50:29;;;;;;;;;;;;;;;26.38;47.76;101572.88;7281922;19;152560;-64
2022/08/12 10:53:19;;;;;;;;;;;;;;;26.40;47.81;101572.53;7286167;19;155257;-63
2022/08/12 10:56:06;;;;;;;;;;;;;;;26.42;47.54;101575.88;7284150;19;153167;-63
2022/08/12 10:58:35;;;;;;;;;;;;;;;26.42;47.61;101570.22;7286456;19;153119;-63
2022/08/12 11:01:04;;;;;;;;;;;;;;;26.43;47.74;101569.03;7285045;19;152275;-65
2022/08/12 11:03:52;;;;;;;;;;;;;;;26.45;47.33;101561.88;7279412;19;156325;-64
2022/08/12 11:06:43;;;;;;;;;;;;;;;26.46;47.78;101568.38;7285671;19;153274;-64
2022/08/12 11:09:30;;;;;;;;;;;;;;;26.48;47.59;101557.53;7291453;19;155275;-64
2022/08/12 11:12:17;;;;;;;;;;;;;;;26.50;47.21;101553.19;7285238;19;153463;-63
2022/08/12 11:15:05;;;;;;;;;;;;;;;26.52;47.52;101550.03;7285411;19;155199;-64
2022/08/12 11:17:47;;;;;;;;;;;;;;;26.52;47.34;101550.03;7285129;19;153667;-64
2022/08/12 11:20:19;;;;;;;;;;;;;;;26.57;47.37;101549.03;7282880;19;152510;-64
2022/08/12 11:22:58;;;;;;;;;;;;;;;26.58;47.34;101551.50;7285338;19;152757;-64
2022/08/12 11:25:46;;;;;;;;;;;;;;;26.57;46.88;101554.69;7283634;19;156139;-64
2022/08/12 11:28:23;;;;;;;;;;;;;;;26.62;46.62;101537.53;7282764;19;152080;-64
2022/08/12 11:31:01;;;;;;;;;;;;;;;26.64;46.77;101546.50;7284701;19;153471;-64
2022/08/12 11:33:27;;;;;;;;;;;;;;;26.65;46.93;101548.19;7290111;19;154164;-63
2022/08/12 11:36:15;;;;;;;;;;;;;;;26.63;46.91;101533.50;7285039;19;154779;-64
2022/08/12 11:38:42;;;;;;;;;;;;;;;26.65;47.28;101542.50;7282132;19;153975;-64
2022/08/12 11:41:17;;;;;;;;;;;;;;;26.63;46.79;101528.66;7285822;19;152352;-64
2022/08/12 11:43:57;;;;;;;;;;;;;;;26.66;46.99;101545.03;7284675;19;154472;-64
2022/08/12 11:46:24;;;;;;;;;;;;;;;26.67;46.42;101543.81;7281166;19;154169;-64
2022/08/12 11:48:51;;;;;;;;;;;;;;;26.66;46.51;101539.34;7281542;19;152482;-64
2022/08/12 11:51:19;;;;;;;;;;;;;;;26.67;46.20;101541.00;7283229;19;154037;-64
2022/08/12 11:53:46;;;;;;;;;;;;;;;26.69;46.43;101540.66;7283768;19;153405;-64
2022/08/12 11:56:27;;;;;;;;;;;;;;;26.67;46.39;101535.31;7291982;19;154418;-64
2022/08/12 11:59:08;;;;;;;;;;;;;;;26.69;45.93;101543.50;7282341;19;152903;-64
2022/08/12 12:01:55;;;;;;;;;;;;;;;26.69;46.28;101541.50;7284050;19;153913;-64
2022/08/12 12:04:29;;;;;;;;;;;;;;;26.71;46.23;101533.47;7279935;19;154686;-64
2022/08/12 12:06:57;;;;;;;;;;;;;;;26.73;46.09;101534.00;7282406;19;154459;-64
2022/08/12 12:09:33;;;;;;;;;;;;;;;26.73;46.39;101511.31;7282554;19;152132;-64
2022/08/12 12:12:19;;;;;;;;;;;;;;;26.72;46.29;101520.13;7284424;19;152864;-64
2022/08/12 12:14:47;;;;;;;;;;;;;;;26.72;46.21;101523.81;7282272;19;153511;-64
2022/08/12 12:17:20;;;;;;;;;;;;;;;26.72;46.00;101503.97;7284602;19;152513;-64
2022/08/12 12:19:47;;;;;;;;;;;;;;;26.72;45.77;101506.78;7286052;19;153269;-64
2022/08/12 12:22:14;;;;;;;;;;;;;;;26.71;45.69;101499.44;7284254;19;154288;-64
2022/08/12 12:24:50;;;;;;;;;;;;;;;26.72;45.73;101501.13;7282456;19;153604;-64
2022/08/12 12:27:18;;;;;;;;;;;;;;;26.73;45.17;101505.63;7279754;19;153169;-64
2022/08/12 12:29:45;;;;;;;;;;;;;;;26.73;45.72;101494.28;7282909;19;152931;-64
2022/08/12 12:32:31;;;;;;;;;;;;;;;26.74;45.66;101492.28;7283427;19;156414;-64
2022/08/12 12:34:58;;;;;;;;;;;;;;;26.74;45.85;101493.13;7279171;19;153873;-64
2022/08/12 12:37:49;;;;;;;;;;;;;;;26.74;45.41;101497.97;7281157;19;152535;-64
2022/08/12 12:40:36;;;;;;;;;;;;;;;26.74;45.76;101492.28;7281925;19;154271;-64
2022/08/12 12:43:05;;;;;;;;;;;;;;;26.73;46.28;101494.28;7289745;19;152619;-64
2022/08/12 12:45:33;;;;;;;;;;;;;;;26.74;46.69;101484.63;7283490;19;152976;-64
2022/08/12 12:48:02;;;;;;;;;;;;;;;26.73;45.65;101482.94;7279965;19;153961;-64
2022/08/12 12:50:30;;;;;;;;;;;;;;;26.74;45.82;101493.13;7280413;19;152525;-64
2022/08/12 12:53:01;;;;;;;;;;;;;;;26.77;45.93;101491.59;7283585;19;153673;-63
2022/08/12 12:55:29;;;;;;;;;;;;;;;26.75;45.83;101491.97;7279337;19;153401;-63
2022/08/12 12:58:03;;;;;;;;;;;;;;;26.77;45.71;101483.09;7281841;19;152289;-64
2022/08/12 13:00:31;;;;;;;;;;;;;;;26.77;45.93;101483.09;7280136;19;152868;-64
2022/08/12 13:02:58;;;;;;;;;;;;;;;26.76;45.94;101476.59;7285945;19;153126;-64
2022/08/12 13:05:33;;;;;;;;;;;;;;;26.77;45.81;101481.09;7280589;19;153416;-64
2022/08/12 13:08:23;;;;;;;;;;;;;;;26.79;45.65;101480.78;7279282;19;153798;-63
2022/08/12 13:11:02;;;;;;;;;;;;;;;26.83;45.38;101473.25;7279653;19;153703;-64
2022/08/12 13:13:30;;;;;;;;;;;;;;;26.80;44.66;101477.56;7284035;19;152080;-64
2022/08/12 13:16:20;;;;;;;;;;;;;;;26.79;44.68;101470.25;7282738;19;157973;-64
2022/08/12 13:18:51;;;;;;;;;;;;;;;26.84;44.24;101472.09;7277518;19;153372;-64
2022/08/12 13:21:19;;;;;;;;;;;;;;;26.79;44.48;101475.94;7282147;19;153061;-64
2022/08/12 13:24:02;;;;;;;;;;;;;;;26.80;45.15;101469.06;7278923;19;153420;-64
2022/08/12 13:26:41;;;;;;;;;;;;;;;26.83;45.33;101474.09;7289837;19;153709;-64
2022/08/12 13:29:08;;;;;;;;;;;;;;;26.81;45.72;101473.56;7278302;19;153272;-64
2022/08/12 13:31:37;;;;;;;;;;;;;;;26.83;45.67;101473.25;7280567;19;151904;-64
2022/08/12 13:34:24;;;;;;;;;;;;;;;26.83;46.08;101473.25;7279203;19;154710;-64
2022/08/12 13:37:00;;;;;;;;;;;;;;;26.84;44.97;101475.75;7278473;19;152263;-63
2022/08/12 13:39:28;;;;;;;;;;;;;;;26.84;44.85;101475.75;7280088;19;152939;-64
2022/08/12 13:41:55;;;;;;;;;;;;;;;26.84;44.59;101455.91;7283315;19;152868;-64
2022/08/12 13:44:25;;;;;;;;;;;;;;;26.86;45.06;101461.25;7280608;19;153999;-64
2022/08/12 13:46:52;;;;;;;;;;;;;;;26.84;44.65;101457.91;7279984;19;153535;-64
2022/08/12 13:49:24;;;;;;;;;;;;;;;26.84;44.52;101455.91;7281436;19;152926;-64
2022/08/12 13:52:11;;;;;;;;;;;;;;;26.87;44.22;101454.41;7283322;19;152724;-64
2022/08/12 13:54:39;;;;;;;;;;;;;;;26.87;43.71;101449.56;7277952;19;152901;-64
2022/08/12 13:57:05;;;;;;;;;;;;;;;26.87;43.65;101438.22;7278677;19;153145;-64
2022/08/12 13:59:42;;;;;;;;;;;;;;;26.88;44.17;101447.56;7280673;19;152114;-64
2022/08/12 14:02:20;;;;;;;;;;;;;;;26.86;43.51;101438.56;7279044;19;153566;-65
2022/08/12 14:04:49;;;;;;;;;;;;;;;26.86;43.37;101433.72;7277198;19;154141;-64
2022/08/12 14:07:22;;;;;;;;;;;;;;;26.86;43.83;101428.06;7279781;19;152915;-63
2022/08/12 14:12:38;;;;;;;;;;;;;;;26.86;44.31;101428.06;7295109;19;153855;-63
2022/08/12 14:15:20;;;;;;;;;;;;;;;26.87;44.78;101424.06;7287290;19;152806;-64
2022/08/12 14:18:21;;;;;;;;;;;;;;;26.88;44.16;101425.72;7286096;19;152955;-63
2022/08/12 14:20:57;;;;;;;;;;;;;;;26.87;44.22;101429.72;7284072;19;152587;-63
2022/08/12 14:23:25;;;;;;;;;;;;;;;26.89;44.60;101420.88;7287239;19;152842;-64
2022/08/12 14:26:16;;;;;;;;;;;;;;;26.89;44.13;101424.53;7286475;19;155950;-64
2022/08/12 14:28:46;;;;;;;;;;;;;;;26.88;43.51;101414.38;7285802;19;152014;-63
2022/08/12 14:31:27;;;;;;;;;;;;;;;26.90;43.10;101417.69;7287432;19;153516;-64
2022/08/12 14:33:58;;;;;;;;;;;;;;;26.91;43.00;101415.69;7281643;19;153911;-64
2022/08/12 14:36:25;;;;;;;;;;;;;;;26.90;43.29;101411.19;7293522;19;152255;-63
2022/08/12 14:38:53;;;;;;;;;;;;;;;26.90;43.37;101419.69;7285502;19;153731;-64
2022/08/12 14:41:22;;;;;;;;;;;;;;;26.89;43.17;101410.34;7286650;19;151931;-63
2022/08/12 14:44:02;;;;;;;;;;;;;;;26.91;42.62;101415.69;7286775;19;153195;-64
2022/08/12 14:46:57;;;;;;;;;;;;;;;26.89;42.82;101416.03;7286120;19;156403;-64
2022/08/12 14:49:24;;;;;;;;;;;;;;;26.89;43.53;101415.22;7282711;19;152360;-63
2022/08/12 14:52:11;;;;;;;;;;;;;;;26.89;43.39;101409.53;7284278;19;156498;-63
2022/08/12 14:54:58;;;;;;;;;;;;;;;26.90;42.88;101416.84;7284583;19;156679;-64